sensor_id;sensor_type;location;lat;lon;timestamp;P1;durP1;ratioP1;P2;durP2;ratioP2
7759;SDS011;3924;48.830;9.262;2022-09-13T00:00:37;7.53;;;1.70;;
7759;SDS011;3924;48.830;9.262;2022-09-13T00:03:04;2.70;;;1.63;;
7759;SDS011;3924;48.830;9.262;2022-09-13T00:05:31;2.03;;;1.47;;
7759;SDS011;3924;48.830;9.262;2022-09-13T00:07:58;1.73;;;1.63;;
7759;SDS011;3924;48.830;9.262;2022-09-13T00:10:24;2.37;;;2.00;;
7759;SDS011;3924;48.830;9.262;2022-09-13T00:12:51;2.93;;;1.63;;
7759;SDS011;3924;48.830;9.262;2022-09-13T00:15:18;1.80;;;1.70;;
7759;SDS011;3924;48.830;9.262;2022-09-13T00:17:45;2.17;;;1.80;;
7759;SDS011;3924;48.830;9.262;2022-09-13T00:20:11;2.30;;;1.70;;
7759;SDS011;3924;48.830;9.262;2022-09-13T00:22:38;1.67;;;1.43;;
7759;SDS011;3924;48.830;9.262;2022-09-13T00:25:05;3.90;;;1.73;;
7759;SDS011;3924;48.830;9.262;2022-09-13T00:27:32;4.10;;;2.03;;
7759;SDS011;3924;48.830;9.262;2022-09-13T00:30:00;2.00;;;1.90;;
7759;SDS011;3924;48.830;9.262;2022-09-13T00:32:26;2.07;;;1.70;;
7759;SDS011;3924;48.830;9.262;2022-09-13T00:34:53;3.40;;;1.90;;
7759;SDS011;3924;48.830;9.262;2022-09-13T00:37:20;2.53;;;1.60;;
7759;SDS011;3924;48.830;9.262;2022-09-13T00:39:46;1.77;;;1.67;;
7759;SDS011;3924;48.830;9.262;2022-09-13T00:42:15;2.10;;;1.90;;
7759;SDS011;3924;48.830;9.262;2022-09-13T00:47:33;3.17;;;1.87;;
7759;SDS011;3924;48.830;9.262;2022-09-13T00:50:46;1.77;;;1.67;;
7759;SDS011;3924;48.830;9.262;2022-09-13T00:55:55;2.97;;;1.73;;
7759;SDS011;3924;48.830;9.262;2022-09-13T00:58:32;1.90;;;1.80;;
7759;SDS011;3924;48.830;9.262;2022-09-13T01:01:02;2.70;;;1.50;;
7759;SDS011;3924;48.830;9.262;2022-09-13T01:03:33;1.70;;;1.60;;
7759;SDS011;3924;48.830;9.262;2022-09-13T01:06:04;1.70;;;1.60;;
7759;SDS011;3924;48.830;9.262;2022-09-13T01:08:36;3.03;;;1.70;;
7759;SDS011;3924;48.830;9.262;2022-09-13T01:11:05;1.70;;;1.60;;
7759;SDS011;3924;48.830;9.262;2022-09-13T01:13:37;1.67;;;1.57;;
7759;SDS011;3924;48.830;9.262;2022-09-13T01:16:05;1.80;;;1.70;;
7759;SDS011;3924;48.830;9.262;2022-09-13T01:18:31;1.47;;;1.37;;
7759;SDS011;3924;48.830;9.262;2022-09-13T01:30:09;5.00;;;1.80;;
7759;SDS011;3924;48.830;9.262;2022-09-13T01:35:19;3.33;;;1.93;;
7759;SDS011;3924;48.830;9.262;2022-09-13T01:38:29;3.07;;;1.77;;
7759;SDS011;3924;48.830;9.262;2022-09-13T01:46:12;1.90;;;1.80;;
7759;SDS011;3924;48.830;9.262;2022-09-13T01:48:55;2.67;;;2.30;;
7759;SDS011;3924;48.830;9.262;2022-09-13T01:57:09;4.60;;;2.20;;
7759;SDS011;3924;48.830;9.262;2022-09-13T01:59:46;4.23;;;2.17;;
7759;SDS011;3924;48.830;9.262;2022-09-13T02:07:59;2.57;;;2.23;;
7759;SDS011;3924;48.830;9.262;2022-09-13T02:10:32;2.37;;;2.20;;
7759;SDS011;3924;48.830;9.262;2022-09-13T02:13:04;3.77;;;2.13;;
7759;SDS011;3924;48.830;9.262;2022-09-13T02:15:37;4.43;;;2.27;;
7759;SDS011;3924;48.830;9.262;2022-09-13T02:18:11;2.03;;;1.83;;
7759;SDS011;3924;48.830;9.262;2022-09-13T02:20:46;2.37;;;1.90;;
7759;SDS011;3924;48.830;9.262;2022-09-13T02:23:16;6.47;;;1.97;;
7759;SDS011;3924;48.830;9.262;2022-09-13T02:25:49;1.90;;;1.80;;
7759;SDS011;3924;48.830;9.262;2022-09-13T02:28:20;3.00;;;1.57;;
7759;SDS011;3924;48.830;9.262;2022-09-13T02:30:53;3.90;;;2.00;;
7759;SDS011;3924;48.830;9.262;2022-09-13T02:33:32;2.27;;;2.07;;
7759;SDS011;3924;48.830;9.262;2022-09-13T02:36:09;3.60;;;1.57;;
7759;SDS011;3924;48.830;9.262;2022-09-13T02:38:45;2.07;;;1.97;;
7759;SDS011;3924;48.830;9.262;2022-09-13T02:41:31;6.27;;;1.97;;
7759;SDS011;3924;48.830;9.262;2022-09-13T02:44:21;3.10;;;1.93;;
7759;SDS011;3924;48.830;9.262;2022-09-13T02:53:15;2.73;;;2.10;;
7759;SDS011;3924;48.830;9.262;2022-09-13T03:01:15;6.27;;;2.33;;
7759;SDS011;3924;48.830;9.262;2022-09-13T03:03:42;2.83;;;1.60;;
7759;SDS011;3924;48.830;9.262;2022-09-13T03:06:09;3.20;;;1.90;;
7759;SDS011;3924;48.830;9.262;2022-09-13T03:08:36;2.87;;;1.70;;
7759;SDS011;3924;48.830;9.262;2022-09-13T03:16:36;1.90;;;1.80;;
7759;SDS011;3924;48.830;9.262;2022-09-13T03:24:47;2.13;;;1.97;;
7759;SDS011;3924;48.830;9.262;2022-09-13T03:27:29;2.30;;;2.10;;
7759;SDS011;3924;48.830;9.262;2022-09-13T03:35:32;2.03;;;1.83;;
7759;SDS011;3924;48.830;9.262;2022-09-13T03:43:29;4.43;;;1.77;;
7759;SDS011;3924;48.830;9.262;2022-09-13T03:46:03;8.17;;;2.00;;
7759;SDS011;3924;48.830;9.262;2022-09-13T03:48:35;2.47;;;2.13;;
7759;SDS011;3924;48.830;9.262;2022-09-13T03:51:05;1.87;;;1.77;;
7759;SDS011;3924;48.830;9.262;2022-09-13T03:53:32;4.00;;;1.80;;
7759;SDS011;3924;48.830;9.262;2022-09-13T03:56:11;1.80;;;1.70;;
7759;SDS011;3924;48.830;9.262;2022-09-13T03:58:42;1.80;;;1.70;;
7759;SDS011;3924;48.830;9.262;2022-09-13T04:01:09;2.03;;;1.93;;
7759;SDS011;3924;48.830;9.262;2022-09-13T04:03:36;1.73;;;1.63;;
7759;SDS011;3924;48.830;9.262;2022-09-13T04:06:03;2.80;;;2.00;;
7759;SDS011;3924;48.830;9.262;2022-09-13T04:08:33;4.13;;;2.17;;
7759;SDS011;3924;48.830;9.262;2022-09-13T04:10:59;4.10;;;1.97;;
7759;SDS011;3924;48.830;9.262;2022-09-13T04:13:26;3.17;;;2.03;;
7759;SDS011;3924;48.830;9.262;2022-09-13T04:15:53;6.37;;;2.30;;
7759;SDS011;3924;48.830;9.262;2022-09-13T04:18:19;1.97;;;1.87;;
7759;SDS011;3924;48.830;9.262;2022-09-13T04:20:53;1.90;;;1.80;;
7759;SDS011;3924;48.830;9.262;2022-09-13T04:23:21;2.47;;;2.00;;
7759;SDS011;3924;48.830;9.262;2022-09-13T04:25:48;1.90;;;1.80;;
7759;SDS011;3924;48.830;9.262;2022-09-13T04:28:15;3.00;;;2.07;;
7759;SDS011;3924;48.830;9.262;2022-09-13T04:30:43;4.13;;;1.93;;
7759;SDS011;3924;48.830;9.262;2022-09-13T04:33:10;1.83;;;1.70;;
7759;SDS011;3924;48.830;9.262;2022-09-13T04:35:37;3.40;;;2.20;;
7759;SDS011;3924;48.830;9.262;2022-09-13T04:38:04;5.13;;;1.93;;
7759;SDS011;3924;48.830;9.262;2022-09-13T04:40:32;3.37;;;1.90;;
7759;SDS011;3924;48.830;9.262;2022-09-13T04:43:00;3.43;;;2.40;;
7759;SDS011;3924;48.830;9.262;2022-09-13T04:45:27;2.00;;;1.87;;
7759;SDS011;3924;48.830;9.262;2022-09-13T04:47:54;2.73;;;2.23;;
7759;SDS011;3924;48.830;9.262;2022-09-13T04:50:22;2.17;;;1.90;;
7759;SDS011;3924;48.830;9.262;2022-09-13T04:52:49;3.13;;;2.10;;
7759;SDS011;3924;48.830;9.262;2022-09-13T04:55:17;2.90;;;2.10;;
7759;SDS011;3924;48.830;9.262;2022-09-13T04:57:43;2.40;;;2.20;;
7759;SDS011;3924;48.830;9.262;2022-09-13T05:00:10;4.07;;;2.53;;
7759;SDS011;3924;48.830;9.262;2022-09-13T05:02:36;2.93;;;2.13;;
7759;SDS011;3924;48.830;9.262;2022-09-13T05:05:03;6.23;;;2.70;;
7759;SDS011;3924;48.830;9.262;2022-09-13T05:07:30;3.77;;;1.87;;
7759;SDS011;3924;48.830;9.262;2022-09-13T05:09:56;2.63;;;2.43;;
7759;SDS011;3924;48.830;9.262;2022-09-13T05:12:22;2.27;;;2.10;;
7759;SDS011;3924;48.830;9.262;2022-09-13T05:14:49;2.83;;;2.10;;
7759;SDS011;3924;48.830;9.262;2022-09-13T05:17:15;2.87;;;2.13;;
7759;SDS011;3924;48.830;9.262;2022-09-13T05:19:42;4.90;;;2.07;;
7759;SDS011;3924;48.830;9.262;2022-09-13T05:22:08;2.60;;;1.90;;
7759;SDS011;3924;48.830;9.262;2022-09-13T05:24:35;5.13;;;2.20;;
7759;SDS011;3924;48.830;9.262;2022-09-13T05:27:01;2.23;;;1.97;;
7759;SDS011;3924;48.830;9.262;2022-09-13T05:29:27;3.50;;;2.00;;
7759;SDS011;3924;48.830;9.262;2022-09-13T05:31:54;4.97;;;2.07;;
7759;SDS011;3924;48.830;9.262;2022-09-13T05:34:20;2.67;;;2.10;;
7759;SDS011;3924;48.830;9.262;2022-09-13T05:36:47;7.17;;;5.50;;
7759;SDS011;3924;48.830;9.262;2022-09-13T05:39:19;6.53;;;2.33;;
7759;SDS011;3924;48.830;9.262;2022-09-13T05:42:07;2.47;;;2.20;;
7759;SDS011;3924;48.830;9.262;2022-09-13T05:44:33;2.40;;;2.10;;
7759;SDS011;3924;48.830;9.262;2022-09-13T05:47:00;5.03;;;2.10;;
7759;SDS011;3924;48.830;9.262;2022-09-13T05:49:26;2.43;;;1.87;;
7759;SDS011;3924;48.830;9.262;2022-09-13T05:51:53;3.10;;;2.40;;
7759;SDS011;3924;48.830;9.262;2022-09-13T05:54:19;2.33;;;2.10;;
7759;SDS011;3924;48.830;9.262;2022-09-13T05:56:45;5.00;;;2.43;;
7759;SDS011;3924;48.830;9.262;2022-09-13T05:59:12;7.83;;;2.57;;
7759;SDS011;3924;48.830;9.262;2022-09-13T06:01:42;5.87;;;2.60;;
7759;SDS011;3924;48.830;9.262;2022-09-13T06:04:08;2.47;;;2.27;;
7759;SDS011;3924;48.830;9.262;2022-09-13T06:06:37;3.13;;;2.17;;
7759;SDS011;3924;48.830;9.262;2022-09-13T06:09:03;7.07;;;2.40;;
7759;SDS011;3924;48.830;9.262;2022-09-13T06:11:31;5.97;;;2.67;;
7759;SDS011;3924;48.830;9.262;2022-09-13T06:13:58;5.07;;;2.50;;
7759;SDS011;3924;48.830;9.262;2022-09-13T06:16:24;9.73;;;2.53;;
7759;SDS011;3924;48.830;9.262;2022-09-13T06:18:51;4.67;;;1.97;;
7759;SDS011;3924;48.830;9.262;2022-09-13T06:21:18;4.20;;;2.20;;
7759;SDS011;3924;48.830;9.262;2022-09-13T06:23:53;4.53;;;2.07;;
7759;SDS011;3924;48.830;9.262;2022-09-13T06:26:21;3.60;;;2.10;;
7759;SDS011;3924;48.830;9.262;2022-09-13T06:28:49;11.30;;;2.27;;
7759;SDS011;3924;48.830;9.262;2022-09-13T06:31:17;4.57;;;2.40;;
7759;SDS011;3924;48.830;9.262;2022-09-13T06:33:45;6.43;;;2.33;;
7759;SDS011;3924;48.830;9.262;2022-09-13T06:36:13;4.07;;;2.20;;
7759;SDS011;3924;48.830;9.262;2022-09-13T06:38:43;4.60;;;2.30;;
7759;SDS011;3924;48.830;9.262;2022-09-13T06:41:18;7.37;;;2.67;;
7759;SDS011;3924;48.830;9.262;2022-09-13T06:43:46;2.60;;;2.40;;
7759;SDS011;3924;48.830;9.262;2022-09-13T06:46:17;3.00;;;2.73;;
7759;SDS011;3924;48.830;9.262;2022-09-13T06:48:50;5.07;;;2.40;;
7759;SDS011;3924;48.830;9.262;2022-09-13T06:51:18;3.80;;;2.47;;
7759;SDS011;3924;48.830;9.262;2022-09-13T06:53:47;2.93;;;2.37;;
7759;SDS011;3924;48.830;9.262;2022-09-13T06:56:15;2.70;;;2.50;;
7759;SDS011;3924;48.830;9.262;2022-09-13T06:58:43;7.67;;;2.50;;
7759;SDS011;3924;48.830;9.262;2022-09-13T07:01:13;4.60;;;2.67;;
7759;SDS011;3924;48.830;9.262;2022-09-13T07:03:42;6.47;;;3.00;;
7759;SDS011;3924;48.830;9.262;2022-09-13T07:06:15;5.83;;;3.07;;
7759;SDS011;3924;48.830;9.262;2022-09-13T07:08:48;10.60;;;3.10;;
7759;SDS011;3924;48.830;9.262;2022-09-13T07:11:16;10.13;;;3.10;;
7759;SDS011;3924;48.830;9.262;2022-09-13T07:14:02;5.70;;;3.30;;
7759;SDS011;3924;48.830;9.262;2022-09-13T07:16:30;4.70;;;2.73;;
7759;SDS011;3924;48.830;9.262;2022-09-13T07:18:59;3.37;;;2.87;;
7759;SDS011;3924;48.830;9.262;2022-09-13T07:21:27;4.03;;;3.13;;
7759;SDS011;3924;48.830;9.262;2022-09-13T07:23:54;8.53;;;2.77;;
7759;SDS011;3924;48.830;9.262;2022-09-13T07:26:21;10.23;;;3.20;;
7759;SDS011;3924;48.830;9.262;2022-09-13T07:28:50;5.63;;;2.77;;
7759;SDS011;3924;48.830;9.262;2022-09-13T07:31:19;6.37;;;3.00;;
7759;SDS011;3924;48.830;9.262;2022-09-13T07:33:58;5.03;;;2.63;;
7759;SDS011;3924;48.830;9.262;2022-09-13T07:36:27;4.63;;;2.70;;
7759;SDS011;3924;48.830;9.262;2022-09-13T07:38:55;5.23;;;2.60;;
7759;SDS011;3924;48.830;9.262;2022-09-13T07:41:23;9.27;;;4.07;;
7759;SDS011;3924;48.830;9.262;2022-09-13T07:43:51;7.03;;;2.93;;
7759;SDS011;3924;48.830;9.262;2022-09-13T07:46:19;3.57;;;2.77;;
7759;SDS011;3924;48.830;9.262;2022-09-13T07:48:51;7.40;;;2.80;;
7759;SDS011;3924;48.830;9.262;2022-09-13T07:51:20;5.63;;;2.50;;
7759;SDS011;3924;48.830;9.262;2022-09-13T07:53:49;7.13;;;3.20;;
7759;SDS011;3924;48.830;9.262;2022-09-13T07:56:32;3.70;;;2.50;;
7759;SDS011;3924;48.830;9.262;2022-09-13T07:59:01;2.33;;;2.13;;
7759;SDS011;3924;48.830;9.262;2022-09-13T08:01:33;7.53;;;2.40;;
7759;SDS011;3924;48.830;9.262;2022-09-13T08:04:02;3.10;;;2.30;;
7759;SDS011;3924;48.830;9.262;2022-09-13T08:06:31;3.77;;;2.10;;
7759;SDS011;3924;48.830;9.262;2022-09-13T08:08:58;2.93;;;2.00;;
7759;SDS011;3924;48.830;9.262;2022-09-13T08:11:29;3.27;;;2.00;;
7759;SDS011;3924;48.830;9.262;2022-09-13T08:14:01;1.73;;;1.60;;
7759;SDS011;3924;48.830;9.262;2022-09-13T08:16:28;3.33;;;2.20;;
7759;SDS011;3924;48.830;9.262;2022-09-13T08:18:56;5.07;;;2.10;;
7759;SDS011;3924;48.830;9.262;2022-09-13T08:21:25;1.83;;;1.73;;
7759;SDS011;3924;48.830;9.262;2022-09-13T08:23:56;3.17;;;2.07;;
7759;SDS011;3924;48.830;9.262;2022-09-13T08:26:26;2.77;;;2.07;;
7759;SDS011;3924;48.830;9.262;2022-09-13T08:28:54;1.70;;;1.60;;
7759;SDS011;3924;48.830;9.262;2022-09-13T08:31:31;3.10;;;2.00;;
7759;SDS011;3924;48.830;9.262;2022-09-13T08:33:58;3.27;;;2.10;;
7759;SDS011;3924;48.830;9.262;2022-09-13T08:36:25;6.63;;;2.27;;
7759;SDS011;3924;48.830;9.262;2022-09-13T08:38:53;3.77;;;1.57;;
7759;SDS011;3924;48.830;9.262;2022-09-13T08:49:31;1.33;;;1.20;;
7759;SDS011;3924;48.830;9.262;2022-09-13T08:52:11;2.57;;;1.40;;
7759;SDS011;3924;48.830;9.262;2022-09-13T08:54:51;10.50;;;1.90;;
7759;SDS011;3924;48.830;9.262;2022-09-13T09:03:09;2.90;;;1.80;;
7759;SDS011;3924;48.830;9.262;2022-09-13T09:05:56;1.60;;;1.50;;
7759;SDS011;3924;48.830;9.262;2022-09-13T09:11:04;1.70;;;1.37;;
7759;SDS011;3924;48.830;9.262;2022-09-13T09:13:40;6.30;;;1.60;;
7759;SDS011;3924;48.830;9.262;2022-09-13T09:19:14;1.63;;;1.53;;
7759;SDS011;3924;48.830;9.262;2022-09-13T09:21:45;5.23;;;1.40;;
7759;SDS011;3924;48.830;9.262;2022-09-13T09:24:20;1.60;;;1.50;;
7759;SDS011;3924;48.830;9.262;2022-09-13T09:26:48;5.10;;;1.40;;
7759;SDS011;3924;48.830;9.262;2022-09-13T09:37:21;2.50;;;1.40;;
7759;SDS011;3924;48.830;9.262;2022-09-13T09:39:53;1.27;;;1.27;;
7759;SDS011;3924;48.830;9.262;2022-09-13T09:42:26;5.90;;;1.43;;
7759;SDS011;3924;48.830;9.262;2022-09-13T09:44:56;1.40;;;1.30;;
7759;SDS011;3924;48.830;9.262;2022-09-13T09:47:27;3.00;;;1.50;;
7759;SDS011;3924;48.830;9.262;2022-09-13T09:50:00;2.80;;;1.37;;
7759;SDS011;3924;48.830;9.262;2022-09-13T09:52:40;1.23;;;1.13;;
7759;SDS011;3924;48.830;9.262;2022-09-13T09:55:24;1.57;;;1.47;;
7759;SDS011;3924;48.830;9.262;2022-09-13T09:57:56;1.93;;;1.30;;
7759;SDS011;3924;48.830;9.262;2022-09-13T10:00:32;1.20;;;1.20;;
7759;SDS011;3924;48.830;9.262;2022-09-13T10:03:04;1.53;;;1.10;;
7759;SDS011;3924;48.830;9.262;2022-09-13T10:05:34;1.13;;;1.13;;
7759;SDS011;3924;48.830;9.262;2022-09-13T10:08:02;1.83;;;1.27;;
7759;SDS011;3924;48.830;9.262;2022-09-13T10:13:06;5.87;;;1.40;;
7759;SDS011;3924;48.830;9.262;2022-09-13T10:15:50;2.37;;;1.13;;
7759;SDS011;3924;48.830;9.262;2022-09-13T10:18:20;1.37;;;1.17;;
7759;SDS011;3924;48.830;9.262;2022-09-13T10:23:46;7.50;;;1.33;;
7759;SDS011;3924;48.830;9.262;2022-09-13T10:26:21;1.20;;;1.20;;
7759;SDS011;3924;48.830;9.262;2022-09-13T10:31:38;5.20;;;1.10;;
7759;SDS011;3924;48.830;9.262;2022-09-13T10:34:12;1.10;;;1.10;;
7759;SDS011;3924;48.830;9.262;2022-09-13T10:36:53;1.70;;;1.00;;
7759;SDS011;3924;48.830;9.262;2022-09-13T10:39:23;0.80;;;0.80;;
7759;SDS011;3924;48.830;9.262;2022-09-13T10:42:04;0.87;;;0.87;;
7759;SDS011;3924;48.830;9.262;2022-09-13T10:44:44;4.20;;;0.97;;
7759;SDS011;3924;48.830;9.262;2022-09-13T10:47:17;2.23;;;1.00;;
7759;SDS011;3924;48.830;9.262;2022-09-13T10:52:46;1.67;;;0.90;;
7759;SDS011;3924;48.830;9.262;2022-09-13T10:57:46;3.20;;;0.90;;
7759;SDS011;3924;48.830;9.262;2022-09-13T11:00:21;0.80;;;0.80;;
7759;SDS011;3924;48.830;9.262;2022-09-13T11:03:05;0.73;;;0.70;;
7759;SDS011;3924;48.830;9.262;2022-09-13T11:05:40;1.50;;;1.20;;
7759;SDS011;3924;48.830;9.262;2022-09-13T11:16:48;1.70;;;0.90;;
7759;SDS011;3924;48.830;9.262;2022-09-13T11:30:16;1.03;;;0.87;;
7759;SDS011;3924;48.830;9.262;2022-09-13T11:47:38;1.43;;;0.90;;
7759;SDS011;3924;48.830;9.262;2022-09-13T11:50:20;0.87;;;0.87;;
7759;SDS011;3924;48.830;9.262;2022-09-13T11:56:04;1.90;;;0.70;;
7759;SDS011;3924;48.830;9.262;2022-09-13T11:58:55;0.70;;;0.70;;
7759;SDS011;3924;48.830;9.262;2022-09-13T12:01:51;0.77;;;0.77;;
7759;SDS011;3924;48.830;9.262;2022-09-13T12:04:28;0.83;;;0.83;;
7759;SDS011;3924;48.830;9.262;2022-09-13T12:07:00;0.80;;;0.80;;
7759;SDS011;3924;48.830;9.262;2022-09-13T12:09:34;3.40;;;1.20;;
7759;SDS011;3924;48.830;9.262;2022-09-13T12:12:09;0.93;;;0.93;;
7759;SDS011;3924;48.830;9.262;2022-09-13T12:15:28;0.70;;;0.70;;
7759;SDS011;3924;48.830;9.262;2022-09-13T12:17:56;2.10;;;0.80;;
7759;SDS011;3924;48.830;9.262;2022-09-13T12:20:49;0.83;;;0.73;;
7759;SDS011;3924;48.830;9.262;2022-09-13T12:23:23;2.37;;;1.30;;
7759;SDS011;3924;48.830;9.262;2022-09-13T12:26:06;1.07;;;0.70;;
7759;SDS011;3924;48.830;9.262;2022-09-13T12:28:42;4.67;;;1.03;;
7759;SDS011;3924;48.830;9.262;2022-09-13T12:31:15;0.70;;;0.70;;
7759;SDS011;3924;48.830;9.262;2022-09-13T12:33:45;0.77;;;0.70;;
7759;SDS011;3924;48.830;9.262;2022-09-13T12:36:26;0.80;;;0.70;;
7759;SDS011;3924;48.830;9.262;2022-09-13T12:39:30;1.63;;;0.90;;
7759;SDS011;3924;48.830;9.262;2022-09-13T12:50:10;0.60;;;0.60;;
7759;SDS011;3924;48.830;9.262;2022-09-13T12:56:27;0.60;;;0.60;;
7759;SDS011;3924;48.830;9.262;2022-09-13T12:59:20;0.77;;;0.70;;
7759;SDS011;3924;48.830;9.262;2022-09-13T13:01:49;1.30;;;0.60;;
7759;SDS011;3924;48.830;9.262;2022-09-13T13:04:31;1.63;;;0.50;;
7759;SDS011;3924;48.830;9.262;2022-09-13T13:07:02;0.70;;;0.70;;
7759;SDS011;3924;48.830;9.262;2022-09-13T13:12:24;0.77;;;0.70;;
7759;SDS011;3924;48.830;9.262;2022-09-13T13:17:44;1.70;;;0.70;;
7759;SDS011;3924;48.830;9.262;2022-09-13T13:23:33;1.03;;;0.67;;
7759;SDS011;3924;48.830;9.262;2022-09-13T13:26:03;1.83;;;0.83;;
7759;SDS011;3924;48.830;9.262;2022-09-13T13:33:51;0.60;;;0.60;;
7759;SDS011;3924;48.830;9.262;2022-09-13T13:36:24;1.13;;;0.70;;
7759;SDS011;3924;48.830;9.262;2022-09-13T13:38:54;0.60;;;0.60;;
7759;SDS011;3924;48.830;9.262;2022-09-13T13:44:53;0.73;;;0.70;;
7759;SDS011;3924;48.830;9.262;2022-09-13T13:46:49;2.20;;;0.90;;
7759;SDS011;3924;48.830;9.262;2022-09-13T13:57:22;0.60;;;0.60;;
7759;SDS011;3924;48.830;9.262;2022-09-13T13:59:51;2.93;;;0.77;;
7759;SDS011;3924;48.830;9.262;2022-09-13T14:02:30;0.60;;;0.60;;
7759;SDS011;3924;48.830;9.262;2022-09-13T14:08:44;0.70;;;0.70;;
7759;SDS011;3924;48.830;9.262;2022-09-13T14:17:29;2.23;;;0.73;;
7759;SDS011;3924;48.830;9.262;2022-09-13T14:20:20;0.53;;;0.53;;
7759;SDS011;3924;48.830;9.262;2022-09-13T14:22:47;0.60;;;0.60;;
7759;SDS011;3924;48.830;9.262;2022-09-13T14:27:47;0.50;;;0.50;;
7759;SDS011;3924;48.830;9.262;2022-09-13T14:30:21;0.60;;;0.50;;
7759;SDS011;3924;48.830;9.262;2022-09-13T14:32:53;0.80;;;0.60;;
7759;SDS011;3924;48.830;9.262;2022-09-13T14:38:18;0.50;;;0.50;;
7759;SDS011;3924;48.830;9.262;2022-09-13T14:40:47;0.47;;;0.47;;
7759;SDS011;3924;48.830;9.262;2022-09-13T14:43:18;0.83;;;0.70;;
7759;SDS011;3924;48.830;9.262;2022-09-13T14:45:48;0.73;;;0.50;;
7759;SDS011;3924;48.830;9.262;2022-09-13T14:48:20;0.50;;;0.50;;
7759;SDS011;3924;48.830;9.262;2022-09-13T14:50:51;2.30;;;0.70;;
7759;SDS011;3924;48.830;9.262;2022-09-13T14:53:25;0.57;;;0.57;;
7759;SDS011;3924;48.830;9.262;2022-09-13T14:55:55;1.60;;;0.47;;
7759;SDS011;3924;48.830;9.262;2022-09-13T14:58:28;0.60;;;0.60;;
7759;SDS011;3924;48.830;9.262;2022-09-13T15:01:04;1.53;;;0.60;;
7759;SDS011;3924;48.830;9.262;2022-09-13T15:03:34;0.60;;;0.60;;
7759;SDS011;3924;48.830;9.262;2022-09-13T15:06:02;2.07;;;0.40;;
7759;SDS011;3924;48.830;9.262;2022-09-13T15:11:00;1.90;;;0.50;;
7759;SDS011;3924;48.830;9.262;2022-09-13T15:13:28;0.40;;;0.40;;
7759;SDS011;3924;48.830;9.262;2022-09-13T15:15:55;10.63;;;1.63;;
7759;SDS011;3924;48.830;9.262;2022-09-13T15:18:22;1.33;;;0.50;;
7759;SDS011;3924;48.830;9.262;2022-09-13T15:23:31;0.40;;;0.37;;
7759;SDS011;3924;48.830;9.262;2022-09-13T15:26:08;0.47;;;0.47;;
7759;SDS011;3924;48.830;9.262;2022-09-13T15:31:10;0.50;;;0.50;;
7759;SDS011;3924;48.830;9.262;2022-09-13T15:33:45;0.50;;;0.50;;
7759;SDS011;3924;48.830;9.262;2022-09-13T15:41:32;0.60;;;0.60;;
7759;SDS011;3924;48.830;9.262;2022-09-13T15:44:00;2.23;;;0.80;;
7759;SDS011;3924;48.830;9.262;2022-09-13T15:46:29;2.17;;;0.80;;
7759;SDS011;3924;48.830;9.262;2022-09-13T15:48:57;2.27;;;0.77;;
7759;SDS011;3924;48.830;9.262;2022-09-13T15:51:27;0.70;;;0.70;;
7759;SDS011;3924;48.830;9.262;2022-09-13T15:53:53;0.70;;;0.70;;
7759;SDS011;3924;48.830;9.262;2022-09-13T15:56:27;0.87;;;0.87;;
7759;SDS011;3924;48.830;9.262;2022-09-13T15:58:59;2.07;;;0.90;;
7759;SDS011;3924;48.830;9.262;2022-09-13T16:01:25;1.20;;;1.07;;
7759;SDS011;3924;48.830;9.262;2022-09-13T16:03:52;1.00;;;0.77;;
7759;SDS011;3924;48.830;9.262;2022-09-13T16:06:19;3.07;;;0.80;;
7759;SDS011;3924;48.830;9.262;2022-09-13T16:08:49;0.90;;;0.90;;
7759;SDS011;3924;48.830;9.262;2022-09-13T16:11:16;1.07;;;0.87;;
7759;SDS011;3924;48.830;9.262;2022-09-13T16:13:42;0.63;;;0.60;;
7759;SDS011;3924;48.830;9.262;2022-09-13T16:16:10;1.60;;;1.07;;
7759;SDS011;3924;48.830;9.262;2022-09-13T16:18:39;1.67;;;0.80;;
7759;SDS011;3924;48.830;9.262;2022-09-13T16:21:05;1.53;;;1.30;;
7759;SDS011;3924;48.830;9.262;2022-09-13T16:23:32;0.80;;;0.80;;
7759;SDS011;3924;48.830;9.262;2022-09-13T16:25:58;0.70;;;0.70;;
7759;SDS011;3924;48.830;9.262;2022-09-13T16:28:25;0.90;;;0.90;;
7759;SDS011;3924;48.830;9.262;2022-09-13T16:30:52;1.50;;;1.33;;
7759;SDS011;3924;48.830;9.262;2022-09-13T16:33:19;1.20;;;0.90;;
7759;SDS011;3924;48.830;9.262;2022-09-13T16:35:45;1.00;;;0.90;;
7759;SDS011;3924;48.830;9.262;2022-09-13T16:38:12;1.40;;;1.10;;
7759;SDS011;3924;48.830;9.262;2022-09-13T16:40:39;1.07;;;0.90;;
7759;SDS011;3924;48.830;9.262;2022-09-13T16:43:07;1.43;;;0.97;;
7759;SDS011;3924;48.830;9.262;2022-09-13T16:45:37;2.90;;;0.90;;
7759;SDS011;3924;48.830;9.262;2022-09-13T16:48:05;1.50;;;1.20;;
7759;SDS011;3924;48.830;9.262;2022-09-13T16:50:33;1.13;;;1.00;;
7759;SDS011;3924;48.830;9.262;2022-09-13T16:53:01;1.23;;;1.13;;
7759;SDS011;3924;48.830;9.262;2022-09-13T16:55:27;2.00;;;1.10;;
7759;SDS011;3924;48.830;9.262;2022-09-13T16:57:55;1.50;;;1.03;;
7759;SDS011;3924;48.830;9.262;2022-09-13T17:00:21;2.00;;;1.00;;
7759;SDS011;3924;48.830;9.262;2022-09-13T17:02:49;2.33;;;1.17;;
7759;SDS011;3924;48.830;9.262;2022-09-13T17:05:16;3.27;;;1.10;;
7759;SDS011;3924;48.830;9.262;2022-09-13T17:07:43;6.03;;;1.57;;
7759;SDS011;3924;48.830;9.262;2022-09-13T17:10:09;7.90;;;1.20;;
7759;SDS011;3924;48.830;9.262;2022-09-13T17:12:37;10.73;;;1.53;;
7759;SDS011;3924;48.830;9.262;2022-09-13T17:15:04;4.43;;;1.10;;
7759;SDS011;3924;48.830;9.262;2022-09-13T17:17:31;9.07;;;1.40;;
7759;SDS011;3924;48.830;9.262;2022-09-13T17:20:03;4.77;;;1.30;;
7759;SDS011;3924;48.830;9.262;2022-09-13T17:22:32;2.10;;;1.13;;
7759;SDS011;3924;48.830;9.262;2022-09-13T17:24:59;3.10;;;1.10;;
7759;SDS011;3924;48.830;9.262;2022-09-13T17:27:26;6.23;;;1.30;;
7759;SDS011;3924;48.830;9.262;2022-09-13T17:29:53;3.63;;;1.30;;
7759;SDS011;3924;48.830;9.262;2022-09-13T17:32:19;1.10;;;1.10;;
7759;SDS011;3924;48.830;9.262;2022-09-13T17:34:45;2.33;;;0.73;;
7759;SDS011;3924;48.830;9.262;2022-09-13T17:37:12;1.70;;;1.10;;
7759;SDS011;3924;48.830;9.262;2022-09-13T17:39:38;7.03;;;0.97;;
7759;SDS011;3924;48.830;9.262;2022-09-13T17:42:05;1.33;;;1.17;;
7759;SDS011;3924;48.830;9.262;2022-09-13T17:44:31;1.67;;;1.17;;
7759;SDS011;3924;48.830;9.262;2022-09-13T17:46:58;4.50;;;1.30;;
7759;SDS011;3924;48.830;9.262;2022-09-13T17:49:24;2.87;;;1.10;;
7759;SDS011;3924;48.830;9.262;2022-09-13T17:51:51;12.90;;;1.50;;
7759;SDS011;3924;48.830;9.262;2022-09-13T17:54:17;2.30;;;1.40;;
7759;SDS011;3924;48.830;9.262;2022-09-13T17:56:43;2.63;;;1.30;;
7759;SDS011;3924;48.830;9.262;2022-09-13T17:59:12;3.57;;;1.10;;
7759;SDS011;3924;48.830;9.262;2022-09-13T18:01:42;5.20;;;1.57;;
7759;SDS011;3924;48.830;9.262;2022-09-13T18:04:11;4.60;;;1.27;;
7759;SDS011;3924;48.830;9.262;2022-09-13T18:06:39;1.60;;;1.27;;
7759;SDS011;3924;48.830;9.262;2022-09-13T18:09:08;1.43;;;1.30;;
7759;SDS011;3924;48.830;9.262;2022-09-13T18:11:35;4.47;;;1.30;;
7759;SDS011;3924;48.830;9.262;2022-09-13T18:14:02;1.97;;;1.30;;
7759;SDS011;3924;48.830;9.262;2022-09-13T18:16:29;2.07;;;1.30;;
7759;SDS011;3924;48.830;9.262;2022-09-13T18:18:57;1.83;;;1.23;;
7759;SDS011;3924;48.830;9.262;2022-09-13T18:21:24;2.13;;;1.30;;
7759;SDS011;3924;48.830;9.262;2022-09-13T18:23:53;3.10;;;1.20;;
7759;SDS011;3924;48.830;9.262;2022-09-13T18:26:23;1.53;;;1.20;;
7759;SDS011;3924;48.830;9.262;2022-09-13T18:28:55;3.77;;;1.10;;
7759;SDS011;3924;48.830;9.262;2022-09-13T18:31:26;1.80;;;1.07;;
7759;SDS011;3924;48.830;9.262;2022-09-13T18:33:55;1.10;;;1.10;;
7759;SDS011;3924;48.830;9.262;2022-09-13T18:36:24;4.63;;;1.33;;
7759;SDS011;3924;48.830;9.262;2022-09-13T18:38:51;1.23;;;1.10;;
7759;SDS011;3924;48.830;9.262;2022-09-13T18:43:51;1.17;;;1.07;;
7759;SDS011;3924;48.830;9.262;2022-09-13T18:46:22;4.53;;;1.40;;
7759;SDS011;3924;48.830;9.262;2022-09-13T18:48:51;1.30;;;1.20;;
7759;SDS011;3924;48.830;9.262;2022-09-13T18:51:20;1.70;;;1.27;;
7759;SDS011;3924;48.830;9.262;2022-09-13T18:53:48;1.30;;;1.20;;
7759;SDS011;3924;48.830;9.262;2022-09-13T18:56:15;2.00;;;1.10;;
7759;SDS011;3924;48.830;9.262;2022-09-13T18:58:44;1.67;;;1.57;;
7759;SDS011;3924;48.830;9.262;2022-09-13T19:01:11;5.23;;;1.30;;
7759;SDS011;3924;48.830;9.262;2022-09-13T19:06:20;5.00;;;1.50;;
7759;SDS011;3924;48.830;9.262;2022-09-13T19:08:50;3.30;;;2.00;;
7759;SDS011;3924;48.830;9.262;2022-09-13T19:11:18;1.30;;;1.20;;
7759;SDS011;3924;48.830;9.262;2022-09-13T19:14:05;1.33;;;1.20;;